Bridgeport, NE (69336)

7:54 PM MDT on August 30, 2014 (GMT -0600)
The Clinger Family | Change Station
CLOSE
Current Station
Personal Weather Station
Location: Bridgeport, NE
Elevation: 3666 ft
Nearby Weather Stations

Elev 3666 ft 41.66 °N, 103.10 °W | Updated 5 minutes ago

Overcast
Overcast
71.7 °F
Feels Like 77 °F
N
2.0
Wind Variable Wind from WNW

Today
High -- | Low -- °F
--% Chance of Precip.
Yesterday
High -- | Low -- °F
Precip. -- in
6:16 AM 7:28 PM
Waxing Crescent, 26% visible
Pressure 29.82 in
Visibility 10.0 miles
Clouds Few 8000 ft
Scattered Clouds 11000 ft
Heat Index 77 °F
Dew Point 53 °F
Humidity 52%
Rainfall 0.00 in
Snow Depth Not available.
UV 0.0 out of 12
Pollen 9.80 out of 12
Air Quality Not available.
Flu Activity Not available.
SPECI KAIA 310142Z AUTO 26021G31KT 10SM FEW080 SCT110 27/06 A2982 RMK AO2 PK WND 25034/0131 WSHFT 0122 T02670061

More Conditions Fewer Conditions

Pressure 29.82 in
Visibility 10.0 miles
Clouds Few 8000 ft
Scattered Clouds 11000 ft
Heat Index 77 °F
Dew Point 53 °F
Humidity 52%
Rainfall 0.00 in
Snow Depth Not available.
UV 0.0 out of 12
Pollen 9.80 out of 12
Air Quality Not available.
Flu Activity Not available.
SPECI KAIA 310142Z AUTO 26021G31KT 10SM FEW080 SCT110 27/06 A2982 RMK AO2 PK WND 25034/0131 WSHFT 0122 T02670061

More Conditions Fewer Conditions

Nowcast | as of 7:09 PM MDT on August 30, 2014

Scattered to numerous showers and a few thunderstorms will move across southeast Wyoming and the western Nebraska Panhandle this evening. Wind gusts to 45 mph will be common...along with brief light to moderate rain and occasional cloud to ground lightning. If threatening weather approaches your area...seek shelter indoors until the storms pass.

×

10-Day Weather Forecast

Almanac

Astronomy

Aug. 30, 2014 Rise Set
Actual Time 6:16 AM MDT 7:28 PM MDT
Civil Twilight 5:47 AM MDT 7:57 PM MDT
Nautical Twilight 5:13 AM MDT 8:31 PM MDT
Astronomical Twilight 4:36 AM MDT 9:07 PM MDT
Moon 11:10 AM MDT (8/30) 9:59 PM MDT (8/30)
Length of Visible Light 14h 09m
Length of Day
13h 12m
Tomorrow will be 2m 41s shorter.
Waxing Crescent, 26% of the Moon is Illuminated
Today
Waxing Crescent
Sep 2
First Quarter
Sep 8
Full
Sep 15
Last Quarter
Sep 24
New

Today's Extremes

State Highs State Lows

Community

WunderPhotos

Upload Photos

1,748,720 photos uploaded!

Nearby

Snow Depth

Station Depth Elevation
No new snow has been reported.

Earthquake Activity

City Distance Mag. Time & Date
No recent earthquake activity has been reported nearby.
Minimum magnitude displayed is 2.5.

Coastal Water Temperatures

Place Temperature
No Stations Reporting

Nearby Weather Stations